EGPN

Dundee Airport

Dundee, United Kingdom
TAF EGPN 230757Z 2309/2318 24012KT 9999 FEW040 PROB40 TEMPO 2309/2318 25018G28KT TEMPO 2314/2318 7000 RA BKN012
Issued Valid From Valid To
Apr-23 @ 07:57 UTC
(2 hours ago)
Apr-23 @ 09:00 UTC
(32 minutes ago)
Apr-23 @ 18:00 UTC
(in 8 hours)
Apr-23 @ 09:00 to Apr-23 @ 18:00
TAF EGPN 230757Z 2309/2318 24012KT 9999 FEW040
Wind Visibility Clouds
240° at 12 knots 10,000+ meters
  • Few at 4,000' AGL
Temporary  (Probability 40%) Apr-23 @ 09:00 to Apr-23 @ 18:00
PROB40 TEMPO 2309/2318 25018G28KT
Wind
250° at 18 knots
 Gusting to 28 knots
Temporary Apr-23 @ 14:00 to Apr-23 @ 18:00
TEMPO 2314/2318 7000 RA BKN012
Visibility Clouds Conditions
7,001 meters
  • Broken at 1,200' AGL
  • Rain
TAF EGPN 230757Z 2309/2318 24012KT 9999 FEW040 PROB40 TEMPO 2309/2318 25018G28KT TEMPO 2314/2318 7000 RA BKN012
Issued Apr-23 @ 07:57 UTC
(2 hours ago)
Valid From Apr-23 @ 09:00 UTC
(32 minutes ago)
Valid To Apr-23 @ 18:00 UTC
(in 8 hours)
Apr-23 @ 09:00 - Apr-23 @ 18:00
Wind Visibility
240° at 12 knots 10,000+ meters
Clouds
  • Few at 4,000' AGL
Probability 40% Temporary Apr-23 @ 09:00 - Apr-23 @ 18:00
Wind
250° at 18 knots
 Gusting to 28 knots
Temporary Apr-23 @ 14:00 - Apr-23 @ 18:00
Clouds
  • Broken at 1,200' AGL
Conditions
  • Rain